»·PEaware :: BEE185 KEGE-KBFF

BEE185 :: KEGE-KBFF

FLIGHT INFORMATION

Flight Status: Arrived
Operator:
Flybe
More flights by this operator :: More flights under this callsign
Pilot: Andrew Northall (12823)
Aircraft: BEECH AIRCRAFT BEECH AIRLINER
(B190)
More flights by this aircraft type
Origin: KEGE Eagle Co Regl
United States
Destination: KBFF Heilig
United States
More flights between these airports :: More routes between these airports
Route: +GYPSM5 RLG V361 CYS V81 BFF
File this flight plan on PilotEdge
Remarks:
Altitude:
(Current/Filed)
25,000ft
Speed:
(Current/Filed)
220kts
Departed: 10-Jan-17 07:27 PM
Arrived: 10-Jan-17 08:58 PM
Distance/Time
Traveled:
182nm/1:31
Distance/Time
To Go:
Arrived

Flight Plot

Page will automatically refresh every two minutes.


Map Options




Map Legend


Flown Route
Filed Route
Departure Airport
Arrival Airport
Navaid (VOR, NDB)
Fix

Horizontal Profiles

Position Reports

Time Latitude Longitude Heading Altitude Ground
Speed
10-Jan-17 19:10 39.640414 -106.916144 170 6499ft 0kts
10-Jan-17 19:11 39.640414 -106.916144 170 6499ft 0kts
10-Jan-17 19:12 39.640414 -106.916144 170 6499ft 0kts
10-Jan-17 19:13 39.640414 -106.916144 170 6499ft 0kts
10-Jan-17 19:14 39.640414 -106.916144 170 6499ft 0kts
10-Jan-17 19:15 39.640414 -106.916144 170 6499ft 0kts
10-Jan-17 19:16 39.640414 -106.916144 170 6499ft 0kts
10-Jan-17 19:17 39.640414 -106.916144 170 6499ft 0kts
10-Jan-17 19:18 39.640414 -106.916144 170 6499ft 0kts
10-Jan-17 19:19 39.640414 -106.916144 170 6499ft 0kts
10-Jan-17 19:20 39.640414 -106.916144 170 6499ft 0kts
10-Jan-17 19:21 39.640414 -106.916144 170 6499ft 0kts
10-Jan-17 19:22 39.640414 -106.916144 170 6499ft 0kts
10-Jan-17 19:23 39.641365 -106.915148 44 6499ft 15kts
10-Jan-17 19:24 39.642019 -106.914017 85 6501ft 13kts
10-Jan-17 19:25 39.643001 -106.904910 83 6528ft 26kts
10-Jan-17 19:26 39.643478 -106.903750 352 6527ft 0kts
10-Jan-17 19:27 39.642201 -106.922017 257 6650ft 138kts
10-Jan-17 19:28 39.612718 -106.963870 223 9010ft 175kts
10-Jan-17 19:29 39.616126 -107.010653 331 11406ft 192kts
10-Jan-17 19:30 39.666302 -107.039906 328 13423ft 203kts
10-Jan-17 19:31 39.720479 -107.068326 330 15038ft 221kts
10-Jan-17 19:32 39.774661 -107.072856 62 16456ft 236kts
10-Jan-17 19:33 39.800453 -106.992234 57 17815ft 253kts
10-Jan-17 19:34 39.831494 -106.908346 55 19225ft 264kts
10-Jan-17 19:35 39.863562 -106.821723 54 20593ft 271kts
10-Jan-17 19:36 39.898966 -106.726293 56 20876ft 320kts
10-Jan-17 19:37 39.939067 -106.616702 57 20870ft 349kts
10-Jan-17 19:38 39.980881 -106.502101 57 20870ft 358kts
10-Jan-17 19:39 40.017473 -106.409599 50 20870ft 356kts
10-Jan-17 19:40 40.046419 -106.347173 51 20870ft 357kts
10-Jan-17 19:41 39.646325 -106.910993 325 6495ft 0kts
10-Jan-17 19:42 39.646326 -106.910993 325 6495ft 0kts
10-Jan-17 19:43 39.646348 -106.911064 258 6495ft 1kts
10-Jan-17 19:44 39.645131 -106.911525 113 6498ft 21kts
10-Jan-17 19:45 39.644119 -106.909156 171 6511ft 1kts
10-Jan-17 19:46 39.643317 -106.908993 170 6517ft 5kts
10-Jan-17 19:47 39.643873 -106.903916 314 6526ft 13kts
10-Jan-17 19:48 39.642278 -106.920452 257 6552ft 133kts
10-Jan-17 19:49 39.618761 -106.957648 222 9194ft 151kts
10-Jan-17 19:50 39.611987 -107.003438 321 11749ft 173kts
10-Jan-17 19:51 39.658192 -107.033555 328 13235ft 201kts
10-Jan-17 19:52 39.711295 -107.067397 328 14274ft 223kts
10-Jan-17 19:53 39.769970 -107.082922 42 15285ft 243kts
10-Jan-17 19:54 39.797574 -107.005598 67 16307ft 245kts
10-Jan-17 19:55 39.825089 -106.928483 64 17246ft 253kts
10-Jan-17 19:56 39.853809 -106.850587 63 18206ft 247kts
10-Jan-17 19:57 39.882992 -106.769902 54 18886ft 268kts
10-Jan-17 19:58 39.915891 -106.682081 55 19531ft 287kts
10-Jan-17 19:59 39.950498 -106.587777 56 20180ft 297kts
10-Jan-17 20:00 39.986006 -106.490503 56 20826ft 302kts
10-Jan-17 20:01 40.026632 -106.391921 47 20888ft 319kts
10-Jan-17 20:02 40.071878 -106.295158 50 20857ft 328kts
10-Jan-17 20:03 40.118041 -106.194614 50 20856ft 332kts
10-Jan-17 20:04 40.165296 -106.091246 50 20857ft 334kts
10-Jan-17 20:05 40.210460 -105.992118 50 20846ft 335kts
10-Jan-17 20:06 40.257663 -105.888223 50 20807ft 336kts
10-Jan-17 20:07 40.304553 -105.784305 50 20805ft 335kts
10-Jan-17 20:08 40.352024 -105.679430 50 20706ft 338kts
10-Jan-17 20:09 40.391519 -105.591584 50 20703ft 338kts
10-Jan-17 20:10 40.415789 -105.537478 51 20704ft 338kts
10-Jan-17 20:11 40.481381 -105.465441 19 20706ft 307kts
10-Jan-17 20:12 40.550359 -105.401445 20 20707ft 309kts
10-Jan-17 20:13 40.618773 -105.337282 20 20693ft 309kts
10-Jan-17 20:14 40.685044 -105.275369 22 20685ft 280kts
10-Jan-17 20:15 40.744905 -105.218687 20 20688ft 260kts
10-Jan-17 20:16 40.802295 -105.164480 20 20690ft 253kts
10-Jan-17 20:17 40.858532 -105.111228 20 20691ft 250kts
10-Jan-17 20:18 40.914469 -105.058096 20 20691ft 249kts
10-Jan-17 20:19 40.970273 -105.004967 20 20691ft 248kts
10-Jan-17 20:20 41.026205 -104.951610 20 20691ft 248kts
10-Jan-17 20:21 41.088601 -104.892502 23 18469ft 300kts
10-Jan-17 20:22 41.154111 -104.828703 25 16647ft 307kts
10-Jan-17 20:23 41.218217 -104.762486 30 14262ft 265kts
10-Jan-17 20:24 41.277665 -104.700371 38 12996ft 291kts
10-Jan-17 20:25 41.342676 -104.632441 37 11818ft 302kts
10-Jan-17 20:26 41.405437 -104.564211 34 11572ft 281kts
10-Jan-17 20:27 41.467999 -104.499268 38 11603ft 294kts
10-Jan-17 20:28 41.532254 -104.430498 40 11598ft 299kts
10-Jan-17 20:29 41.596932 -104.361450 40 11599ft 300kts
10-Jan-17 20:30 41.659993 -104.294439 38 10447ft 297kts
10-Jan-17 20:31 41.720499 -104.230110 38 9218ft 265kts
10-Jan-17 20:32 41.776217 -104.169503 38 8009ft 256kts
10-Jan-17 20:33 41.831317 -104.110784 36 6827ft 253kts
10-Jan-17 20:34 41.887264 -104.054027 36 5642ft 252kts
10-Jan-17 20:35 41.947854 -103.992573 36 5508ft 269kts
10-Jan-17 20:36 42.001236 -103.938407 36 5513ft 222kts
10-Jan-17 20:37 42.048264 -103.890601 36 5521ft 207kts
10-Jan-17 20:38 42.075805 -103.834149 130 5529ft 178kts
10-Jan-17 20:39 42.036833 -103.800667 152 5521ft 171kts
10-Jan-17 20:40 42.000695 -103.759069 145 5520ft 174kts
10-Jan-17 20:41 41.964976 -103.713397 135 5517ft 180kts
10-Jan-17 20:42 41.930109 -103.667486 135 5288ft 166kts
10-Jan-17 20:43 41.902740 -103.631583 136 4602ft 123kts
10-Jan-17 20:44 41.878077 -103.599387 135 3960ft 104kts
10-Jan-17 20:58 41.881687 -103.604156 133 3957ft 0kts
10-Jan-17 20:59 41.881608 -103.604049 134 3957ft 1kts
10-Jan-17 21:00 41.866380 -103.571402 77 4675ft 161kts
10-Jan-17 21:01 41.885167 -103.526948 72 6666ft 160kts
10-Jan-17 21:02 41.877681 -103.474617 169 8505ft 177kts
10-Jan-17 21:03 41.830093 -103.489790 188 10176ft 184kts
10-Jan-17 21:04 41.770378 -103.499513 186 11805ft 186kts
10-Jan-17 21:05 41.728222 -103.505759 187 12935ft 184kts
10-Jan-17 21:06 41.674883 -103.513151 204 14152ft 192kts
10-Jan-17 21:07 41.622302 -103.521425 203 15439ft 193kts
10-Jan-17 21:08 41.568542 -103.529395 204 16482ft 200kts
10-Jan-17 21:09 41.506921 -103.538683 200 16531ft 243kts
10-Jan-17 21:10 41.436963 -103.548784 199 16526ft 262kts
10-Jan-17 21:11 41.363275 -103.559090 198 16500ft 272kts
10-Jan-17 21:12 41.288008 -103.569643 198 16497ft 274kts

Navigation Log

Ident Type
1. KEGE Airport
2. VAILE Fix
3. RLG Navaid
4. RLG Navaid
5. ALLAN Fix
6. BARGR Fix
7. CYS Navaid
8. CYS Navaid
9. VIDEE Fix
10. ALBIN Fix
11. BFF Navaid
12. KBFF Airport